EEN weather

Dillant Hopkins Airport
Keene, New Hampshire, United States

Public forecast

Using degrees Fahrenheit for public forecast. Weather courtesy of forecast.io.

Current aviation weather report (METAR) for Dillant Hopkins Airport

Retrieved 2019/11/13 10:56 UTC (6 minutes ago):

KEEN 131056Z AUTO 29008KT 260V330 10SM CLR M11/M18 A3012 RMK AO2 SLP212 T11061183 FZRANO

Closest aviation forecast (TAF) to Dillant Hopkins Airport

Closest forecast is Manchester-Boston Regional Airport, 36.8 nm (68.1 km) E. Retrieved 2019/11/13 06:22 UTC (5 hours ago):

TAF KMHT 130520Z 1306/1406 30012G21KT P6SM FEW200